createdAt,value
2022-12-27T00:02:24.884Z,3.42
2022-12-27T00:04:55.180Z,1.17
2022-12-27T00:07:23.881Z,0.80
2022-12-27T00:09:52.160Z,1.50
2022-12-27T00:12:20.819Z,0.90
2022-12-27T00:14:49.447Z,1.02
2022-12-27T00:17:20.577Z,2.22
2022-12-27T00:19:53.534Z,1.30
2022-12-27T00:22:23.353Z,2.53
2022-12-27T00:24:54.494Z,1.20
2022-12-27T00:27:23.122Z,1.00
2022-12-27T00:29:54.463Z,0.73
2022-12-27T00:32:23.724Z,0.90
2022-12-27T00:34:53.950Z,1.00
2022-12-27T00:37:28.376Z,0.70
2022-12-27T00:39:57.053Z,0.73
2022-12-27T00:42:27.176Z,0.80
2022-12-27T00:44:59.043Z,1.17
2022-12-27T00:47:32.468Z,1.10
2022-12-27T00:50:00.910Z,1.00
2022-12-27T00:52:33.796Z,1.08
2022-12-27T00:55:02.583Z,1.08
2022-12-27T00:57:31.283Z,1.33
2022-12-27T01:00:09.843Z,1.00
2022-12-27T01:02:39.500Z,1.10
2022-12-27T01:05:08.735Z,1.10
2022-12-27T01:07:41.486Z,0.82
2022-12-27T01:10:10.499Z,1.20
2022-12-27T01:12:39.034Z,1.05
2022-12-27T01:15:09.987Z,1.30
2022-12-27T01:17:40.739Z,0.85
2022-12-27T01:20:12.625Z,1.02
2022-12-27T01:22:45.766Z,1.15
2022-12-27T01:25:21.554Z,1.40
2022-12-27T01:27:52.572Z,1.00
2022-12-27T01:30:24.111Z,1.20
2022-12-27T01:32:56.015Z,0.98
2022-12-27T01:35:25.076Z,1.27
2022-12-27T01:37:56.953Z,1.25
2022-12-27T01:40:26.854Z,1.03
2022-12-27T01:42:55.667Z,1.10
2022-12-27T01:45:27.971Z,1.20
2022-12-27T01:48:02.145Z,1.13
2022-12-27T01:50:34.219Z,1.10
2022-12-27T01:53:09.934Z,1.10
2022-12-27T01:55:43.192Z,1.00
2022-12-27T01:58:16.295Z,0.98
2022-12-27T02:00:47.197Z,1.20
2022-12-27T02:03:21.496Z,0.90
2022-12-27T02:05:50.912Z,0.90
2022-12-27T02:08:31.183Z,1.10
2022-12-27T02:11:00.129Z,0.85
2022-12-27T02:13:30.185Z,1.15
2022-12-27T02:15:58.887Z,1.08
2022-12-27T02:18:27.631Z,0.83
2022-12-27T02:21:29.436Z,1.20
2022-12-27T02:24:39.553Z,1.80
2022-12-27T02:27:13.687Z,0.75
2022-12-27T02:30:03.266Z,1.10
2022-12-27T02:32:37.204Z,1.00
2022-12-27T02:35:16.319Z,0.88
2022-12-27T02:37:48.482Z,1.02
2022-12-27T02:40:37.354Z,1.05
2022-12-27T02:43:23.902Z,1.00
2022-12-27T02:46:21.725Z,0.90
2022-12-27T02:49:12.569Z,0.77
2022-12-27T02:52:13.982Z,1.00
2022-12-27T02:55:04.467Z,1.00
2022-12-27T02:57:43.501Z,1.08
2022-12-27T03:00:33.856Z,1.30
2022-12-27T03:03:29.923Z,1.00
2022-12-27T03:06:41.073Z,1.00
2022-12-27T03:09:46.601Z,0.90
2022-12-27T03:12:39.686Z,0.82
2022-12-27T03:15:37.790Z,0.87
2022-12-27T03:18:13.309Z,0.93
2022-12-27T03:21:00.808Z,1.00
2022-12-27T03:23:47.771Z,0.70
2022-12-27T03:26:20.553Z,0.93
2022-12-27T03:29:08.009Z,0.87
2022-12-27T03:31:58.254Z,0.90
2022-12-27T03:34:36.098Z,0.90
2022-12-27T03:37:26.269Z,0.65
2022-12-27T03:40:04.374Z,0.93
2022-12-27T03:42:53.839Z,0.77
2022-12-27T03:45:44.722Z,0.60
2022-12-27T03:48:16.619Z,0.70
2022-12-27T03:50:52.491Z,0.70
2022-12-27T03:53:27.394Z,0.80
2022-12-27T03:55:56.216Z,0.70
2022-12-27T03:58:24.813Z,0.52
2022-12-27T04:00:53.278Z,0.90
2022-12-27T04:03:21.800Z,0.70
2022-12-27T04:05:51.782Z,0.55
2022-12-27T04:08:37.839Z,0.70
2022-12-27T04:11:23.416Z,0.70
2022-12-27T04:14:09.542Z,0.70
2022-12-27T04:16:55.602Z,0.70
2022-12-27T04:19:41.097Z,0.95
2022-12-27T04:22:28.047Z,0.70
2022-12-27T04:25:14.128Z,0.90
2022-12-27T04:28:00.241Z,0.77
2022-12-27T04:30:46.546Z,0.63
2022-12-27T04:33:32.789Z,0.70
2022-12-27T04:36:06.199Z,0.80
2022-12-27T04:38:37.178Z,0.60
2022-12-27T04:41:23.300Z,0.80
2022-12-27T04:44:09.266Z,0.70
2022-12-27T04:46:55.331Z,0.70
2022-12-27T04:49:44.425Z,0.50
2022-12-27T04:52:34.659Z,1.15
2022-12-27T04:55:16.562Z,0.90
2022-12-27T04:57:45.788Z,0.80
2022-12-27T05:00:33.451Z,1.00
2022-12-27T05:03:03.375Z,0.80
2022-12-27T05:05:32.556Z,0.98
2022-12-27T05:08:21.884Z,0.68
2022-12-27T05:11:13.961Z,0.70
2022-12-27T05:14:01.363Z,0.70
2022-12-27T05:16:33.763Z,0.73
2022-12-27T05:19:02.694Z,0.80
2022-12-27T05:21:36.713Z,0.90
2022-12-27T05:24:22.900Z,0.77
2022-12-27T05:26:52.770Z,1.02
2022-12-27T05:29:27.666Z,1.00
2022-12-27T05:31:56.647Z,0.80
2022-12-27T05:34:25.902Z,1.02
2022-12-27T05:36:54.598Z,0.80
2022-12-27T05:39:23.271Z,1.10
2022-12-27T05:41:53.306Z,1.00
2022-12-27T05:44:22.025Z,0.90
2022-12-27T05:46:50.743Z,1.00
2022-12-27T05:49:19.339Z,0.70
2022-12-27T05:51:48.078Z,1.10
2022-12-27T05:54:18.760Z,0.80
2022-12-27T05:56:47.513Z,0.82
2022-12-27T05:59:17.222Z,1.23
2022-12-27T06:01:48.289Z,1.33
2022-12-27T06:04:19.354Z,1.10
2022-12-27T06:06:48.015Z,1.27
2022-12-27T06:09:16.689Z,1.60
2022-12-27T06:11:47.696Z,1.40
2022-12-27T06:14:17.419Z,1.05
2022-12-27T06:16:46.111Z,1.60
2022-12-27T06:19:14.692Z,1.20
2022-12-27T06:21:43.236Z,1.20
2022-12-27T06:24:11.869Z,0.98
2022-12-27T06:26:46.526Z,1.15
2022-12-27T06:29:15.019Z,1.08
2022-12-27T06:31:45.272Z,1.13
2022-12-27T06:34:14.295Z,1.38
2022-12-27T06:36:43.064Z,0.90
2022-12-27T06:39:11.746Z,1.15
2022-12-27T06:41:40.588Z,1.13
2022-12-27T06:44:09.215Z,1.13
2022-12-27T06:46:38.216Z,1.38
2022-12-27T06:49:07.969Z,2.00
2022-12-27T06:51:36.646Z,3.47
2022-12-27T06:54:05.702Z,2.35
2022-12-27T06:56:35.101Z,1.50
2022-12-27T06:59:04.058Z,1.20
2022-12-27T07:01:33.296Z,1.02
2022-12-27T07:04:02.851Z,0.90
2022-12-27T07:07:18.657Z,1.63
2022-12-27T07:13:15.911Z,1.90
2022-12-27T07:15:44.761Z,1.70
2022-12-27T07:18:13.420Z,1.65
2022-12-27T07:20:42.140Z,1.90
2022-12-27T07:23:19.111Z,2.00
2022-12-27T07:25:48.350Z,2.00
2022-12-27T07:28:17.048Z,1.90
2022-12-27T07:30:46.005Z,1.40
2022-12-27T07:33:14.792Z,1.10
2022-12-27T07:35:45.199Z,1.40
2022-12-27T07:38:15.236Z,1.88
2022-12-27T07:40:43.846Z,1.50
2022-12-27T07:43:13.002Z,1.88
2022-12-27T07:45:41.565Z,1.63
2022-12-27T07:48:10.495Z,3.50
2022-12-27T07:50:39.168Z,4.63
2022-12-27T07:53:07.887Z,4.57
2022-12-27T07:55:37.630Z,3.78
2022-12-27T07:58:07.652Z,3.70
2022-12-27T08:00:36.250Z,2.47
2022-12-27T08:03:04.900Z,1.88
2022-12-27T08:05:33.524Z,2.15
2022-12-27T08:08:02.824Z,2.00
2022-12-27T08:10:34.165Z,2.22
2022-12-27T08:13:43.667Z,1.90
2022-12-27T08:16:17.283Z,1.80
2022-12-27T08:18:45.999Z,1.80
2022-12-27T08:21:14.669Z,1.90
2022-12-27T08:23:43.282Z,2.00
2022-12-27T08:26:12.073Z,2.00
2022-12-27T08:28:40.597Z,2.03
2022-12-27T08:31:10.755Z,2.03
2022-12-27T08:33:41.969Z,2.33
2022-12-27T08:39:01.459Z,2.10
2022-12-27T08:41:30.252Z,2.00
2022-12-27T08:43:58.975Z,1.90
2022-12-27T08:46:27.730Z,1.80
2022-12-27T08:48:57.537Z,1.85
2022-12-27T08:51:34.439Z,1.77
2022-12-27T08:54:09.002Z,1.85
2022-12-27T08:56:37.765Z,2.00
2022-12-27T08:59:07.274Z,1.80
2022-12-27T09:01:36.072Z,1.70
2022-12-27T09:04:15.988Z,1.30
2022-12-27T09:06:45.749Z,1.90
2022-12-27T09:09:17.315Z,1.55
2022-12-27T09:11:49.530Z,1.50
2022-12-27T09:14:27.896Z,1.67
2022-12-27T09:17:01.395Z,3.30
2022-12-27T09:19:31.345Z,1.58
2022-12-27T09:21:59.828Z,1.70
2022-12-27T09:24:30.883Z,1.90
2022-12-27T09:26:59.367Z,1.42
2022-12-27T09:29:27.878Z,1.10
2022-12-27T09:32:05.237Z,1.35
2022-12-27T09:34:34.848Z,1.08
2022-12-27T09:37:03.324Z,1.35
2022-12-27T09:39:31.691Z,1.27
2022-12-27T09:44:58.229Z,1.00
2022-12-27T09:47:31.854Z,1.30
2022-12-27T09:50:04.740Z,1.13
2022-12-27T09:52:38.379Z,0.98
2022-12-27T09:55:12.788Z,0.70
2022-12-27T09:57:44.250Z,1.00
2022-12-27T10:00:19.706Z,1.27
2022-12-27T10:03:06.095Z,1.30
2022-12-27T10:05:38.373Z,1.45
2022-12-27T10:08:23.210Z,0.90
2022-12-27T10:10:57.213Z,0.80
2022-12-27T10:13:39.457Z,1.10
2022-12-27T10:16:21.029Z,1.15
2022-12-27T10:19:30.198Z,0.90
2022-12-27T10:22:23.662Z,0.80
2022-12-27T10:24:59.396Z,0.75
2022-12-27T10:27:30.309Z,1.20
2022-12-27T10:30:03.439Z,0.85
2022-12-27T10:32:32.164Z,1.00
2022-12-27T10:35:06.306Z,1.00
2022-12-27T10:41:56.401Z,1.20
2022-12-27T10:44:45.419Z,1.10
2022-12-27T10:47:21.230Z,1.20
2022-12-27T10:50:10.310Z,1.00
2022-12-27T10:52:42.289Z,1.20
2022-12-27T10:55:33.459Z,1.30
2022-12-27T10:58:21.228Z,1.10
2022-12-27T11:00:57.206Z,1.33
2022-12-27T11:03:28.344Z,1.10
2022-12-27T11:06:04.639Z,1.35
2022-12-27T11:08:36.236Z,1.38
2022-12-27T11:11:15.150Z,1.60
2022-12-27T11:13:47.616Z,1.25
2022-12-27T11:16:20.867Z,1.27
2022-12-27T11:19:21.286Z,1.20
2022-12-27T11:22:16.241Z,1.35
2022-12-27T11:24:48.037Z,1.27
2022-12-27T11:27:27.682Z,1.30
2022-12-27T11:30:29.959Z,1.27
2022-12-27T11:33:03.523Z,1.02
2022-12-27T11:35:41.690Z,0.90
2022-12-27T11:38:24.156Z,1.10
2022-12-27T11:41:27.703Z,1.30
2022-12-27T11:44:07.121Z,1.20
2022-12-27T11:46:58.822Z,1.00
2022-12-27T11:49:39.176Z,1.08
2022-12-27T11:52:40.326Z,1.00
2022-12-27T11:55:45.117Z,1.15
2022-12-27T11:58:53.586Z,1.13
2022-12-27T12:05:39.409Z,1.00
2022-12-27T12:08:39.736Z,1.10
2022-12-27T12:11:20.796Z,0.98
2022-12-27T12:14:20.589Z,0.87
2022-12-27T12:17:21.290Z,0.80
2022-12-27T12:20:51.045Z,0.95
2022-12-27T12:23:48.171Z,0.80
2022-12-27T12:26:42.356Z,1.10
2022-12-27T12:30:05.844Z,0.90
2022-12-27T12:33:11.263Z,0.80
2022-12-27T12:36:02.213Z,0.80
2022-12-27T12:38:38.704Z,1.10
2022-12-27T12:42:07.874Z,0.90
2022-12-27T12:45:52.198Z,0.87
2022-12-27T12:48:54.223Z,1.17
2022-12-27T12:51:47.560Z,1.00
2022-12-27T12:54:29.576Z,1.20
2022-12-27T12:57:16.377Z,1.00
2022-12-27T13:00:22.384Z,1.33
2022-12-27T13:03:21.203Z,0.93
2022-12-27T13:05:59.187Z,0.98
2022-12-27T13:08:38.571Z,1.20
2022-12-27T13:11:32.380Z,1.15
2022-12-27T13:14:26.975Z,1.03
2022-12-27T13:17:03.194Z,0.90
2022-12-27T13:19:58.763Z,1.10
2022-12-27T13:22:49.936Z,1.10
2022-12-27T13:25:30.045Z,1.00
2022-12-27T13:28:20.686Z,1.20
2022-12-27T13:31:12.756Z,1.17
2022-12-27T13:33:51.348Z,1.17
2022-12-27T13:36:26.841Z,1.08
2022-12-27T13:39:28.538Z,1.10
2022-12-27T13:42:22.765Z,1.00
2022-12-27T13:45:42.490Z,1.00
2022-12-27T13:48:49.605Z,1.10
2022-12-27T13:52:21.407Z,1.20
2022-12-27T13:55:14.598Z,1.48
2022-12-27T13:58:16.134Z,1.00
2022-12-27T14:00:59.723Z,1.30
2022-12-27T14:04:18.434Z,1.30
2022-12-27T14:07:07.883Z,1.23
2022-12-27T14:10:40.077Z,1.23
2022-12-27T14:13:11.353Z,1.10
2022-12-27T14:19:41.537Z,1.33
2022-12-27T14:22:31.268Z,1.58
2022-12-27T14:25:39.301Z,1.20
2022-12-27T14:28:59.732Z,1.20
2022-12-27T14:31:56.643Z,1.10
2022-12-27T14:34:59.309Z,1.70
2022-12-27T14:37:55.175Z,1.13
2022-12-27T14:40:39.148Z,1.50
2022-12-27T14:44:00.159Z,1.30
2022-12-27T14:47:07.320Z,1.25
2022-12-27T14:50:06.785Z,1.50
2022-12-27T14:53:15.408Z,1.40
2022-12-27T14:56:03.612Z,1.55
2022-12-27T14:58:47.602Z,1.30
2022-12-27T15:01:25.963Z,1.40
2022-12-27T15:04:10.096Z,1.58
2022-12-27T15:07:02.258Z,1.50
2022-12-27T15:09:38.803Z,1.48
2022-12-27T15:12:36.106Z,1.90
2022-12-27T15:15:36.917Z,2.00
2022-12-27T15:18:33.910Z,1.90
2022-12-27T20:23:14.046Z,7.03
2022-12-27T20:25:46.446Z,6.80
2022-12-27T20:28:16.003Z,7.25
2022-12-27T20:30:46.119Z,8.17
2022-12-27T20:33:14.906Z,26.65
2022-12-27T20:35:46.535Z,36.85
2022-12-27T20:38:16.074Z,17.67
2022-12-27T20:40:46.791Z,8.52
2022-12-27T20:47:27.784Z,7.57
2022-12-27T20:49:56.254Z,7.63
2022-12-27T20:52:30.870Z,8.10
2022-12-27T20:55:11.512Z,8.93
2022-12-27T20:57:42.474Z,10.00
2022-12-27T21:00:12.590Z,11.95
2022-12-27T21:02:42.245Z,12.55
2022-12-27T21:05:11.049Z,12.88
2022-12-27T21:07:39.505Z,13.45
2022-12-27T21:10:13.513Z,12.23
2022-12-27T21:12:43.512Z,10.93
2022-12-27T21:15:12.392Z,11.00
2022-12-27T21:17:40.942Z,9.18
2022-12-27T21:20:11.601Z,8.30
2022-12-27T21:22:43.362Z,8.17
2022-12-27T21:25:13.104Z,8.23
2022-12-27T21:27:41.479Z,8.35
2022-12-27T21:30:16.688Z,8.90
2022-12-27T21:32:45.049Z,8.57
2022-12-27T21:35:13.365Z,8.70
2022-12-27T21:37:41.723Z,8.25
2022-12-27T21:40:12.668Z,8.50
2022-12-27T21:42:41.055Z,7.10
2022-12-27T21:45:09.766Z,8.00
2022-12-27T21:47:38.192Z,7.20
2022-12-27T21:50:10.203Z,7.45
2022-12-27T21:52:38.739Z,7.22
2022-12-27T21:55:07.347Z,7.85
2022-12-27T21:57:39.318Z,7.55
2022-12-27T22:00:08.699Z,8.07
2022-12-27T22:02:39.991Z,7.75
2022-12-27T22:05:08.889Z,6.32
2022-12-27T22:07:37.052Z,6.63
2022-12-27T22:10:05.641Z,6.63
2022-12-27T22:12:34.079Z,6.10
2022-12-27T22:15:03.531Z,6.53
2022-12-27T22:17:31.934Z,6.40
2022-12-27T22:20:00.671Z,7.28
2022-12-27T22:22:30.535Z,8.48
2022-12-27T22:24:59.063Z,7.77
2022-12-27T22:27:27.531Z,7.05
2022-12-27T22:30:02.396Z,8.25
2022-12-27T22:32:31.760Z,9.52
2022-12-27T22:35:01.230Z,7.43
2022-12-27T22:37:34.696Z,7.27
2022-12-27T22:40:04.509Z,6.90
2022-12-27T22:42:37.697Z,6.90
2022-12-27T22:45:06.667Z,7.15
2022-12-27T22:47:36.180Z,6.25
2022-12-27T22:50:04.649Z,7.17
2022-12-27T22:52:33.046Z,7.32
2022-12-27T22:55:07.115Z,7.32
2022-12-27T22:57:35.895Z,7.43
2022-12-27T23:00:05.628Z,7.78
2022-12-27T23:02:34.190Z,7.43
2022-12-27T23:05:03.849Z,6.70
2022-12-27T23:08:04.382Z,7.43
2022-12-27T23:10:27.951Z,7.43
2022-12-27T23:12:57.853Z,7.35
2022-12-27T23:15:26.431Z,7.27
2022-12-27T23:17:56.058Z,7.45
2022-12-27T23:20:28.678Z,6.75
2022-12-27T23:22:57.886Z,6.68
2022-12-27T23:25:31.269Z,6.85
2022-12-27T23:27:59.634Z,6.07
2022-12-27T23:30:28.123Z,6.32
2022-12-27T23:32:56.622Z,6.18
2022-12-27T23:35:27.550Z,6.43
2022-12-27T23:38:03.005Z,6.95
2022-12-27T23:40:32.058Z,6.57
2022-12-27T23:43:25.768Z,6.65
2022-12-27T23:45:48.825Z,6.70
2022-12-27T23:48:18.254Z,6.60
2022-12-27T23:50:50.720Z,6.63
2022-12-27T23:53:23.156Z,7.60
2022-12-27T23:55:56.933Z,7.43
2022-12-27T23:58:36.305Z,8.02
